Terminal Aerodrome Forecast
Issued by NWS

Home | Current Version | Previous Version | Text Only | Print | Product List | Glossary On
Versions: 1 2 3 4 5 6 7 8 9 10 11 12 13 14 15 16 17 18 19
724
FTUS41 KPBZ 282200 AAB
TAFZZV
TAF AMD
KZZV 282200Z 2822/2918 34007KT P6SM SCT015 OVC025
      TEMPO 2823/2901 BKN015
     FM290100 35007KT P6SM BKN009
     FM291000 02005KT P6SM BKN015
     FM291500 03006KT P6SM SCT200=

USA.gov is the U.S. government's official web portal to all federal, state and local government web resources and services.